메인 페이지
METAR-TAF:

METAR-TAF

공항 :

쿠웨이트 국제공항

쿠웨이트, 쿠웨이트

위도: 29-13N, 경도: 047-59E, 고도: 55m

현재 날씨관측

예보는 39분 전, 09:00시(UTC)에 발표되었습니다.
24kt
온도 44°C
습도 13%
기압 1003 hPa
시정: 1300m
맑음
(강한) , 모래

METAR: OKBK 200900Z 35024KT 1300 R15R/0500VP1500D R33L/0375VP1500D R15L/P1500U R33R/0325V1100N +BLSA SKC 44/10 Q1003 NOSIG

시각: 12:39 (09:39 UTC)

예보

예보는 4 시간 54분 전, 04:45시(UTC)에 발표되었습니다.
예보 대상 시간: 20일 06시부터 21일 12시까지 (UTC)
북북서15kt, 순간 최대 풍속 30kt
시정: 6000m
맑음
일시적
20일 06시부터 20일 15시까지 (UTC)
시정: 1500m
날린먼지
확률 30% :
일시적
20일 09시부터 20일 12시까지 (UTC)
시정: 0800m

TAF: OKBK 200445Z 2006/2112 34015G30KT 6000 SKC TEMPO 2006/2015 1500 BLDU PROB30 TEMPO 2009/2012 0800 DS

4,000개 이상의 공항 관측 자료 및 예보 (METAR 및 TAF 보고).

지도상에서 검색 가능한 기상관측소가 노란 점과 빨간 점으로 표시되어 있습니다.

기상관측소 명을 보려면 표시 위로 마우스를 이동하세요.

날씨 관측과 예보를 보려면 클릭하세요.

지도 변경 : 확대하려면 엑스 표시가 있는 녹색 버튼, 축소하려면 빼기 표시가 있는 녹색 버튼, 다음 페이지의 지도를 보려면 녹색 화살표를 클릭하세요.


METAR-TAF: